createdAt,value
2018-11-29T00:00:40.753Z,21.40
2018-11-29T00:03:09.357Z,21.38
2018-11-29T00:05:35.921Z,21.39
2018-11-29T00:08:02.441Z,21.38
2018-11-29T00:10:28.948Z,21.39
2018-11-29T00:12:55.461Z,21.39
2018-11-29T00:15:22.022Z,21.39
2018-11-29T00:17:48.554Z,21.38
2018-11-29T00:20:17.572Z,21.37
2018-11-29T00:22:44.865Z,21.37
2018-11-29T00:25:12.065Z,21.37
2018-11-29T00:27:38.715Z,21.37
2018-11-29T00:30:11.705Z,21.38
2018-11-29T00:32:38.261Z,21.37
2018-11-29T00:35:06.316Z,21.37
2018-11-29T00:37:32.813Z,21.37
2018-11-29T00:39:59.322Z,21.36
2018-11-29T00:42:25.769Z,21.37
2018-11-29T00:44:52.317Z,21.36
2018-11-29T00:47:18.837Z,21.36
2018-11-29T00:49:45.376Z,21.36
2018-11-29T00:52:11.889Z,21.35
2018-11-29T00:54:38.348Z,21.34
2018-11-29T00:57:05.121Z,21.34
2018-11-29T00:59:31.640Z,21.35
2018-11-29T01:01:58.137Z,21.34
2018-11-29T01:04:24.597Z,21.33
2018-11-29T01:06:51.105Z,21.34
2018-11-29T01:09:17.559Z,21.33
2018-11-29T01:11:44.088Z,21.33
2018-11-29T01:14:10.620Z,21.33
2018-11-29T01:16:37.144Z,21.33
2018-11-29T01:19:04.077Z,21.33
2018-11-29T01:21:30.516Z,21.34
2018-11-29T01:23:56.981Z,21.32
2018-11-29T01:26:23.517Z,21.32
2018-11-29T01:28:50.056Z,21.33
2018-11-29T01:31:16.582Z,21.33
2018-11-29T01:33:43.113Z,21.33
2018-11-29T01:36:09.629Z,21.33
2018-11-29T01:38:36.200Z,21.32
2018-11-29T01:41:02.945Z,21.31
2018-11-29T01:43:29.469Z,21.30
2018-11-29T01:45:55.985Z,21.31
2018-11-29T01:48:22.513Z,21.31
2018-11-29T01:50:49.075Z,21.31
2018-11-29T01:53:15.565Z,21.31
2018-11-29T01:55:42.025Z,21.31
2018-11-29T01:58:08.545Z,21.32
2018-11-29T02:00:35.049Z,21.30
2018-11-29T02:03:01.509Z,21.30
2018-11-29T02:05:27.964Z,21.31
2018-11-29T02:07:54.510Z,21.29
2018-11-29T02:11:50.665Z,21.29
2018-11-29T02:14:17.183Z,21.30
2018-11-29T02:16:43.680Z,21.31
2018-11-29T02:19:10.125Z,21.29
2018-11-29T02:21:36.665Z,21.29
2018-11-29T02:24:03.538Z,21.29
2018-11-29T02:26:30.061Z,21.29
2018-11-29T02:28:56.572Z,21.29
2018-11-29T02:31:23.122Z,21.30
2018-11-29T02:33:49.655Z,21.30
2018-11-29T02:36:16.199Z,21.30
2018-11-29T02:38:42.709Z,21.29
2018-11-29T02:41:09.269Z,21.30
2018-11-29T02:43:35.773Z,21.30
2018-11-29T02:46:05.323Z,21.31
2018-11-29T02:48:31.930Z,21.30
2018-11-29T02:50:58.474Z,21.31
2018-11-29T02:53:24.983Z,21.31
2018-11-29T02:55:51.482Z,21.30
2018-11-29T02:58:17.966Z,21.29
2018-11-29T03:00:44.493Z,21.30
2018-11-29T03:03:11.053Z,21.30
2018-11-29T03:05:37.593Z,21.31
2018-11-29T03:08:04.263Z,21.31
2018-11-29T03:10:30.737Z,21.29
2018-11-29T03:12:57.285Z,21.30
2018-11-29T03:15:23.813Z,21.30
2018-11-29T03:17:50.362Z,21.29
2018-11-29T03:20:16.873Z,21.29
2018-11-29T03:22:43.341Z,21.31
2018-11-29T03:25:10.811Z,21.30
2018-11-29T03:27:37.323Z,21.30
2018-11-29T03:30:05.444Z,21.29
2018-11-29T03:32:31.918Z,21.28
2018-11-29T03:34:58.455Z,21.29
2018-11-29T03:37:24.985Z,21.29
2018-11-29T03:39:51.517Z,21.30
2018-11-29T03:42:18.072Z,21.29
2018-11-29T03:44:44.581Z,21.29
2018-11-29T03:47:11.102Z,21.29
2018-11-29T03:49:37.665Z,21.29
2018-11-29T03:52:04.409Z,21.29
2018-11-29T03:54:30.941Z,21.29
2018-11-29T03:56:57.461Z,21.29
2018-11-29T03:59:24.005Z,21.29
2018-11-29T04:01:50.529Z,21.30
2018-11-29T04:04:17.085Z,21.30
2018-11-29T04:06:43.605Z,21.28
2018-11-29T04:09:10.149Z,21.28
2018-11-29T04:11:36.682Z,21.29
2018-11-29T04:14:03.593Z,21.29
2018-11-29T04:16:30.061Z,21.29
2018-11-29T04:18:56.607Z,21.29
2018-11-29T04:21:23.116Z,21.29
2018-11-29T04:23:49.668Z,21.29
2018-11-29T04:26:16.181Z,21.29
2018-11-29T04:28:42.657Z,21.29
2018-11-29T04:31:09.150Z,21.29
2018-11-29T04:33:35.612Z,21.29
2018-11-29T04:36:02.121Z,21.30
2018-11-29T04:38:28.649Z,21.30
2018-11-29T04:40:55.117Z,21.31
2018-11-29T04:43:21.622Z,21.32
2018-11-29T04:45:59.969Z,21.33
2018-11-29T04:48:26.465Z,21.33
2018-11-29T04:50:52.957Z,21.33
2018-11-29T04:53:19.429Z,21.35
2018-11-29T04:55:45.897Z,21.35
2018-11-29T04:58:12.403Z,21.36
2018-11-29T05:00:38.961Z,21.37
2018-11-29T05:03:05.501Z,21.37
2018-11-29T05:05:32.029Z,21.38
2018-11-29T05:07:58.555Z,21.38
2018-11-29T05:10:25.093Z,21.38
2018-11-29T05:12:51.612Z,21.38
2018-11-29T05:15:18.167Z,21.37
2018-11-29T05:17:44.696Z,21.38
2018-11-29T05:20:11.253Z,21.38
2018-11-29T05:22:37.861Z,21.38
2018-11-29T05:25:05.457Z,21.37
2018-11-29T05:27:31.975Z,21.36
2018-11-29T05:29:58.572Z,21.36
2018-11-29T05:32:25.037Z,21.35
2018-11-29T05:34:51.553Z,21.33
2018-11-29T05:37:18.005Z,21.33
2018-11-29T05:39:44.521Z,21.31
2018-11-29T05:42:10.969Z,21.33
2018-11-29T05:44:37.491Z,21.34
2018-11-29T05:47:04.580Z,21.31
2018-11-29T05:49:31.077Z,21.31
2018-11-29T05:51:57.652Z,21.30
2018-11-29T05:54:24.133Z,21.30
2018-11-29T05:56:50.606Z,21.30
2018-11-29T05:59:17.117Z,21.31
2018-11-29T06:01:43.672Z,21.30
2018-11-29T06:04:10.181Z,21.28
2018-11-29T06:06:36.709Z,21.29
2018-11-29T06:09:06.905Z,21.27
2018-11-29T06:11:33.369Z,21.28
2018-11-29T06:13:59.916Z,21.28
2018-11-29T06:16:26.437Z,21.26
2018-11-29T06:18:52.901Z,21.27
2018-11-29T06:21:19.405Z,21.26
2018-11-29T06:23:45.863Z,21.26
2018-11-29T06:26:12.369Z,21.27
2018-11-29T06:29:42.356Z,21.26
2018-11-29T06:32:08.849Z,21.25
2018-11-29T06:34:35.405Z,21.25
2018-11-29T06:37:01.902Z,21.24
2018-11-29T06:39:28.457Z,21.24
2018-11-29T06:41:54.969Z,21.24
2018-11-29T06:44:21.521Z,21.24
2018-11-29T06:46:48.049Z,21.25
2018-11-29T06:49:14.593Z,21.23
2018-11-29T06:51:41.105Z,21.24
2018-11-29T06:54:07.573Z,21.25
2018-11-29T06:56:34.077Z,21.24
2018-11-29T06:59:00.609Z,21.24
2018-11-29T07:01:27.049Z,21.24
2018-11-29T07:03:53.572Z,21.25
2018-11-29T07:06:20.065Z,21.25
2018-11-29T07:08:46.537Z,21.25
2018-11-29T07:11:13.005Z,21.24
2018-11-29T07:13:39.509Z,21.24
2018-11-29T07:16:06.149Z,21.24
2018-11-29T07:18:32.597Z,21.25
2018-11-29T07:21:10.757Z,21.25
2018-11-29T07:23:37.220Z,21.25
2018-11-29T07:26:04.362Z,21.26
2018-11-29T07:28:30.805Z,21.25
2018-11-29T07:30:57.281Z,21.24
2018-11-29T07:33:23.775Z,21.25
2018-11-29T07:35:50.333Z,21.26
2018-11-29T07:38:16.833Z,21.24
2018-11-29T07:40:43.301Z,21.25
2018-11-29T07:43:09.813Z,21.26
2018-11-29T07:45:36.268Z,21.25
2018-11-29T07:48:02.788Z,21.25
2018-11-29T07:50:29.337Z,21.26
2018-11-29T07:52:55.850Z,21.25
2018-11-29T07:55:22.343Z,21.25
2018-11-29T07:57:49.905Z,21.25
2018-11-29T08:00:16.413Z,21.26
2018-11-29T08:02:43.085Z,21.26
2018-11-29T08:05:10.631Z,21.26
2018-11-29T08:07:37.520Z,21.26
2018-11-29T08:10:06.677Z,21.25
2018-11-29T08:12:33.177Z,21.26
2018-11-29T08:14:59.681Z,21.26
2018-11-29T08:17:26.129Z,21.26
2018-11-29T08:19:52.665Z,21.28
2018-11-29T08:22:19.724Z,21.27
2018-11-29T08:24:45.717Z,21.27
2018-11-29T08:27:12.177Z,21.27
2018-11-29T08:29:38.684Z,21.28
2018-11-29T08:32:05.291Z,21.27
2018-11-29T08:34:31.749Z,21.28
2018-11-29T08:36:58.245Z,21.28
2018-11-29T08:39:24.722Z,21.28
2018-11-29T08:41:51.189Z,21.28
2018-11-29T08:44:17.693Z,21.27
2018-11-29T08:46:44.134Z,21.28
2018-11-29T08:49:10.685Z,21.27
2018-11-29T08:51:37.202Z,21.27
2018-11-29T08:54:03.889Z,21.29
2018-11-29T08:56:30.373Z,21.29
2018-11-29T08:58:56.921Z,21.29
2018-11-29T09:01:23.429Z,21.29
2018-11-29T09:03:49.901Z,21.28
2018-11-29T09:06:16.411Z,21.29
2018-11-29T09:08:42.961Z,21.28
2018-11-29T09:11:09.484Z,21.28
2018-11-29T09:13:36.030Z,21.29
2018-11-29T09:16:02.561Z,21.29
2018-11-29T09:18:29.093Z,21.29
2018-11-29T09:20:55.617Z,21.31
2018-11-29T09:23:22.164Z,21.29
2018-11-29T09:25:48.686Z,21.31
2018-11-29T09:28:15.240Z,21.29
2018-11-29T09:30:41.749Z,21.31
2018-11-29T09:33:08.205Z,21.30
2018-11-29T09:35:34.721Z,21.30
2018-11-29T09:38:01.177Z,21.31
2018-11-29T09:40:27.701Z,21.30
2018-11-29T09:42:54.249Z,21.31
2018-11-29T09:45:21.540Z,21.33
2018-11-29T09:47:51.064Z,21.32
2018-11-29T09:50:17.677Z,21.31
2018-11-29T09:52:44.200Z,21.32
2018-11-29T09:55:11.653Z,21.33
2018-11-29T09:57:38.185Z,21.32
2018-11-29T10:00:09.881Z,21.33
2018-11-29T10:02:36.337Z,21.32
2018-11-29T10:05:03.149Z,21.32
2018-11-29T10:07:29.613Z,21.33
2018-11-29T10:09:56.169Z,21.32
2018-11-29T10:12:22.677Z,21.32
2018-11-29T10:14:49.137Z,21.33
2018-11-29T10:17:15.658Z,21.31
2018-11-29T10:19:42.212Z,21.32
2018-11-29T10:22:08.737Z,21.32
2018-11-29T10:24:35.274Z,21.32
2018-11-29T10:27:01.789Z,21.32
2018-11-29T10:29:28.253Z,21.32
2018-11-29T10:31:54.753Z,21.32
2018-11-29T10:34:21.221Z,21.31
2018-11-29T10:36:47.725Z,21.32
2018-11-29T10:39:14.288Z,21.31
2018-11-29T10:41:40.789Z,21.31
2018-11-29T10:44:07.253Z,21.31
2018-11-29T10:46:33.757Z,21.30
2018-11-29T10:49:00.324Z,21.31
2018-11-29T10:51:26.825Z,21.30
2018-11-29T10:53:53.353Z,21.31
2018-11-29T10:56:19.821Z,21.31
2018-11-29T10:58:46.329Z,21.31
2018-11-29T11:01:12.793Z,21.32
2018-11-29T11:03:39.301Z,21.31
2018-11-29T11:06:05.765Z,21.32
2018-11-29T11:08:32.270Z,21.32
2018-11-29T11:10:58.833Z,21.31
2018-11-29T11:13:25.346Z,21.32
2018-11-29T11:15:51.893Z,21.32
2018-11-29T11:18:18.673Z,21.32
2018-11-29T11:20:45.166Z,21.32
2018-11-29T11:23:11.677Z,21.32
2018-11-29T11:25:38.144Z,21.32
2018-11-29T11:28:06.337Z,21.32
2018-11-29T11:30:32.890Z,21.33
2018-11-29T11:32:59.353Z,21.33
2018-11-29T11:35:25.849Z,21.33
2018-11-29T11:37:52.321Z,21.32
2018-11-29T11:40:18.785Z,21.32
2018-11-29T11:42:45.778Z,21.34
2018-11-29T11:45:16.314Z,21.35
2018-11-29T11:47:42.947Z,21.34
2018-11-29T11:50:13.373Z,21.33
2018-11-29T11:52:39.858Z,21.34
2018-11-29T11:56:36.249Z,21.34
2018-11-29T11:59:02.748Z,21.34
2018-11-29T12:01:29.281Z,21.34
2018-11-29T12:03:55.788Z,21.33
2018-11-29T12:06:22.360Z,21.35
2018-11-29T12:08:48.861Z,21.35
2018-11-29T12:11:15.424Z,21.36
2018-11-29T12:13:41.925Z,21.35
2018-11-29T12:16:08.497Z,21.35
2018-11-29T12:18:34.989Z,21.35
2018-11-29T12:21:01.521Z,21.35
2018-11-29T12:23:27.968Z,21.35
2018-11-29T12:25:54.527Z,21.35
2018-11-29T12:28:21.049Z,21.34
2018-11-29T12:30:48.729Z,21.33
2018-11-29T12:33:15.253Z,21.34
2018-11-29T12:35:41.765Z,21.34
2018-11-29T12:38:08.310Z,21.34
2018-11-29T12:40:34.837Z,21.34
2018-11-29T12:43:01.405Z,21.34
2018-11-29T12:45:27.941Z,21.34
2018-11-29T12:47:54.468Z,21.33
2018-11-29T12:50:22.981Z,21.33
2018-11-29T12:52:49.496Z,21.34
2018-11-29T12:55:17.046Z,21.35
2018-11-29T12:57:43.690Z,21.33
2018-11-29T13:00:12.923Z,21.33
2018-11-29T13:02:48.156Z,21.33
2018-11-29T13:05:14.646Z,21.34
2018-11-29T13:07:43.348Z,21.32
2018-11-29T13:10:07.717Z,21.31
2018-11-29T13:12:34.237Z,21.31
2018-11-29T13:15:00.813Z,21.33
2018-11-29T13:17:27.285Z,21.33
2018-11-29T13:19:53.746Z,21.31
2018-11-29T13:22:20.257Z,21.32
2018-11-29T13:24:46.813Z,21.32
2018-11-29T13:27:13.328Z,21.31
2018-11-29T13:29:39.877Z,21.31
2018-11-29T13:32:06.449Z,21.33
2018-11-29T13:34:32.950Z,21.32
2018-11-29T13:36:59.470Z,21.33
2018-11-29T13:39:26.026Z,21.32
2018-11-29T13:41:52.577Z,21.31
2018-11-29T13:44:19.113Z,21.33
2018-11-29T13:46:45.609Z,21.32
2018-11-29T13:49:12.173Z,21.33
2018-11-29T13:51:38.673Z,21.33
2018-11-29T13:54:05.386Z,21.32
2018-11-29T13:56:31.868Z,21.33
2018-11-29T13:58:58.385Z,21.32
2018-11-29T14:01:25.051Z,21.32
2018-11-29T14:03:51.453Z,21.32
2018-11-29T14:06:17.917Z,21.31
2018-11-29T14:08:44.419Z,21.30
2018-11-29T14:11:10.881Z,21.32
2018-11-29T14:13:37.385Z,21.31
2018-11-29T14:16:04.088Z,21.30
2018-11-29T14:18:30.556Z,21.31
2018-11-29T14:20:57.019Z,21.32
2018-11-29T14:23:23.530Z,21.32
2018-11-29T14:25:50.077Z,21.31
2018-11-29T14:28:16.593Z,21.30
2018-11-29T14:30:43.088Z,21.30
2018-11-29T14:33:09.573Z,21.30
2018-11-29T14:35:36.129Z,21.30
2018-11-29T14:38:02.649Z,21.30
2018-11-29T14:40:32.304Z,21.30
2018-11-29T14:42:58.773Z,21.29
2018-11-29T14:45:25.680Z,21.28
2018-11-29T14:47:52.411Z,21.29
2018-11-29T14:50:24.180Z,21.28
2018-11-29T14:52:50.698Z,21.30
2018-11-29T14:55:17.198Z,21.31
2018-11-29T14:57:43.782Z,21.30
2018-11-29T15:00:11.129Z,21.31
2018-11-29T15:02:37.629Z,21.32
2018-11-29T15:06:33.901Z,21.32
2018-11-29T15:09:00.403Z,21.33
2018-11-29T15:11:29.299Z,21.35
2018-11-29T15:13:53.487Z,21.36
2018-11-29T15:16:19.981Z,21.38
2018-11-29T15:18:46.449Z,21.38
2018-11-29T15:21:12.949Z,21.37
2018-11-29T15:23:39.408Z,21.39
2018-11-29T15:26:05.999Z,21.38
2018-11-29T15:28:32.486Z,21.38
2018-11-29T15:30:59.026Z,21.39
2018-11-29T15:33:25.557Z,21.39
2018-11-29T15:35:52.065Z,21.38
2018-11-29T15:38:18.652Z,21.39
2018-11-29T15:40:45.130Z,21.39
2018-11-29T15:43:11.589Z,21.39
2018-11-29T15:45:38.161Z,21.39
2018-11-29T15:48:04.690Z,21.39
2018-11-29T15:50:31.201Z,21.37
2018-11-29T15:52:57.729Z,21.38
2018-11-29T15:55:24.241Z,21.38
2018-11-29T15:57:51.380Z,21.38
2018-11-29T16:00:24.149Z,21.37
2018-11-29T16:02:51.162Z,21.37
2018-11-29T16:05:17.687Z,21.36
2018-11-29T16:07:44.193Z,21.38
2018-11-29T16:10:11.841Z,21.48
2018-11-29T16:12:38.397Z,21.55
2018-11-29T16:15:13.501Z,21.62
2018-11-29T16:17:39.967Z,21.65
2018-11-29T16:20:09.532Z,21.71
2018-11-29T16:22:36.028Z,21.77
2018-11-29T16:25:04.315Z,21.85
2018-11-29T16:27:30.801Z,21.94
2018-11-29T16:29:58.702Z,21.99
2018-11-29T16:32:25.237Z,22.08
2018-11-29T16:34:51.760Z,22.12
2018-11-29T16:37:18.305Z,22.16
2018-11-29T16:39:44.809Z,22.22
2018-11-29T16:42:11.257Z,22.26
2018-11-29T16:44:37.785Z,22.31
2018-11-29T16:47:04.488Z,22.35
2018-11-29T16:49:30.952Z,22.39
2018-11-29T16:51:57.513Z,22.42
2018-11-29T16:54:24.021Z,22.45
2018-11-29T16:56:50.629Z,22.49
2018-11-29T16:59:17.122Z,22.52
2018-11-29T17:01:43.620Z,22.54
2018-11-29T17:04:10.080Z,22.56
2018-11-29T17:06:36.593Z,22.57
2018-11-29T17:09:06.921Z,22.57
2018-11-29T17:11:34.019Z,22.59
2018-11-29T17:14:00.517Z,22.64
2018-11-29T17:16:27.041Z,22.63
2018-11-29T17:18:53.585Z,22.66
2018-11-29T17:21:20.109Z,22.67
2018-11-29T17:23:46.708Z,22.70
2018-11-29T17:26:13.178Z,22.73
2018-11-29T17:28:39.730Z,22.74
2018-11-29T17:31:06.244Z,22.74
2018-11-29T17:33:32.729Z,22.77
2018-11-29T17:35:59.209Z,22.80
2018-11-29T17:38:25.660Z,22.84
2018-11-29T17:40:52.176Z,22.85
2018-11-29T17:43:18.627Z,22.84
2018-11-29T17:45:45.152Z,22.80
2018-11-29T17:48:11.948Z,22.85
2018-11-29T17:50:39.710Z,22.90
2018-11-29T17:53:06.636Z,22.93
2018-11-29T17:55:33.171Z,22.93
2018-11-29T17:58:00.121Z,22.89
2018-11-29T18:00:28.957Z,22.86
2018-11-29T18:02:55.416Z,22.86
2018-11-29T18:05:21.957Z,22.85
2018-11-29T18:07:48.485Z,22.85
2018-11-29T18:10:16.211Z,22.84
2018-11-29T18:12:43.012Z,22.83
2018-11-29T18:15:15.416Z,22.83
2018-11-29T18:17:41.883Z,22.82
2018-11-29T18:20:09.701Z,22.81
2018-11-29T18:22:36.173Z,22.81
2018-11-29T18:25:02.685Z,22.80
2018-11-29T18:27:29.146Z,22.78
2018-11-29T18:29:55.669Z,22.76
2018-11-29T18:32:22.146Z,22.73
2018-11-29T18:34:48.637Z,22.70
2018-11-29T18:37:15.253Z,22.69
2018-11-29T18:39:41.717Z,22.66
2018-11-29T18:42:08.277Z,22.62
2018-11-29T18:44:34.781Z,22.59
2018-11-29T18:47:01.245Z,22.56
2018-11-29T18:49:27.762Z,22.54
2018-11-29T18:51:54.318Z,22.53
2018-11-29T18:54:20.821Z,22.46
2018-11-29T18:56:47.277Z,22.48
2018-11-29T18:59:13.791Z,22.46
2018-11-29T19:01:40.356Z,22.43
2018-11-29T19:04:06.865Z,22.41
2018-11-29T19:06:33.509Z,22.39
2018-11-29T19:08:59.941Z,22.37
2018-11-29T19:11:26.473Z,22.36
2018-11-29T19:13:53.025Z,22.33
2018-11-29T19:16:19.545Z,22.30
2018-11-29T19:18:46.088Z,22.29
2018-11-29T19:21:12.606Z,22.28
2018-11-29T19:23:39.060Z,22.25
2018-11-29T19:26:05.907Z,22.23
2018-11-29T19:28:32.334Z,22.22
2018-11-29T19:30:58.854Z,22.21
2018-11-29T19:33:26.165Z,22.18
2018-11-29T19:35:53.395Z,22.18
2018-11-29T19:38:19.933Z,22.16
2018-11-29T19:40:46.421Z,22.15
2018-11-29T19:43:12.889Z,22.15
2018-11-29T19:45:39.405Z,22.13
2018-11-29T19:48:06.934Z,22.13
2018-11-29T19:50:33.551Z,22.11
2018-11-29T19:53:00.593Z,22.11
2018-11-29T19:55:28.665Z,22.09
2018-11-29T19:57:55.158Z,22.08
2018-11-29T20:00:21.741Z,22.06
2018-11-29T20:02:51.429Z,22.06
2018-11-29T20:05:18.037Z,22.05
2018-11-29T20:07:44.565Z,22.04
2018-11-29T20:10:14.945Z,22.05
2018-11-29T20:12:41.885Z,22.03
2018-11-29T20:15:12.071Z,22.02
2018-11-29T20:17:38.829Z,22.13
2018-11-29T20:20:07.121Z,22.13
2018-11-29T20:22:33.601Z,22.08
2018-11-29T20:25:00.153Z,22.05
2018-11-29T20:27:26.665Z,22.04
2018-11-29T20:29:53.223Z,22.02
2018-11-29T20:32:19.737Z,22.00
2018-11-29T20:34:46.309Z,21.98
2018-11-29T20:37:12.836Z,21.96
2018-11-29T20:39:39.346Z,21.96
2018-11-29T20:42:05.913Z,21.94
2018-11-29T20:44:32.410Z,21.93
2018-11-29T20:46:59.795Z,21.92
2018-11-29T20:49:26.249Z,21.91
2018-11-29T20:51:52.753Z,21.90
2018-11-29T20:54:19.261Z,21.89
2018-11-29T20:56:45.745Z,21.89
2018-11-29T20:59:12.233Z,21.88
2018-11-29T21:01:38.713Z,21.87
2018-11-29T21:04:05.230Z,21.85
2018-11-29T21:06:31.773Z,21.84
2018-11-29T21:08:58.281Z,21.83
2018-11-29T21:11:24.825Z,21.81
2018-11-29T21:13:51.345Z,21.81
2018-11-29T21:16:17.903Z,21.80
2018-11-29T21:18:44.421Z,21.79
2018-11-29T21:21:10.980Z,21.78
2018-11-29T21:23:37.487Z,21.78
2018-11-29T21:26:04.386Z,21.75
2018-11-29T21:28:30.853Z,21.75
2018-11-29T21:30:57.340Z,21.73
2018-11-29T21:33:23.821Z,21.73
2018-11-29T21:35:50.261Z,21.72
2018-11-29T21:38:19.005Z,21.72
2018-11-29T21:40:54.237Z,21.71
2018-11-29T21:43:20.750Z,21.69
2018-11-29T21:45:47.265Z,21.68
2018-11-29T21:48:13.804Z,21.68
2018-11-29T21:50:40.345Z,21.68
2018-11-29T21:53:06.893Z,21.66
2018-11-29T21:55:33.477Z,21.65
2018-11-29T21:57:59.982Z,21.65
2018-11-29T22:00:26.465Z,21.64
2018-11-29T22:02:56.233Z,21.63
2018-11-29T22:05:22.705Z,21.63
2018-11-29T22:07:49.153Z,21.63
2018-11-29T22:10:15.689Z,21.63
2018-11-29T22:12:42.232Z,21.61
2018-11-29T22:15:10.345Z,21.60
2018-11-29T22:18:43.212Z,21.60
2018-11-29T22:21:09.713Z,21.59
2018-11-29T22:23:37.437Z,21.58
2018-11-29T22:26:07.531Z,21.58
2018-11-29T22:28:34.029Z,21.57
2018-11-29T22:31:00.571Z,21.56
2018-11-29T22:33:27.105Z,21.56
2018-11-29T22:35:53.624Z,21.57
2018-11-29T22:38:20.081Z,21.54
2018-11-29T22:40:46.617Z,21.55
2018-11-29T22:43:13.157Z,21.54
2018-11-29T22:45:39.677Z,21.53
2018-11-29T22:48:06.224Z,21.54
2018-11-29T22:50:32.738Z,21.53
2018-11-29T22:52:59.305Z,21.52
2018-11-29T22:55:25.825Z,21.52
2018-11-29T22:57:52.381Z,21.52
2018-11-29T23:00:18.979Z,21.52
2018-11-29T23:02:46.504Z,21.51
2018-11-29T23:05:13.042Z,21.50
2018-11-29T23:07:39.524Z,21.50
2018-11-29T23:10:07.569Z,21.50
2018-11-29T23:12:34.013Z,21.51
2018-11-29T23:15:00.581Z,21.49
2018-11-29T23:17:27.073Z,21.50
2018-11-29T23:19:53.541Z,21.50
2018-11-29T23:22:20.037Z,21.50
2018-11-29T23:24:46.553Z,21.49
2018-11-29T23:27:13.009Z,21.50
2018-11-29T23:29:39.469Z,21.49
2018-11-29T23:32:06.063Z,21.48
2018-11-29T23:34:32.536Z,21.48
2018-11-29T23:36:59.049Z,21.47
2018-11-29T23:39:25.593Z,21.47
2018-11-29T23:41:52.173Z,21.48
2018-11-29T23:44:18.645Z,21.47
2018-11-29T23:46:45.113Z,21.46
2018-11-29T23:49:11.622Z,21.46
2018-11-29T23:51:38.173Z,21.47
2018-11-29T23:54:04.709Z,21.46
2018-11-29T23:56:31.282Z,21.46
2018-11-29T23:59:01.513Z,21.46
